Time;durP1;ratioP1;P1;durP2;ratioP2;P2;SDS_P1;SDS_P2;PMS_P1;PMS_P2;Temp;Humidity;BMP_temperature;BMP_pressure;BME280_temperature;BME280_humidity;BME280_pressure;Samples;Min_cycle;Max_cycle;Signal;HPM_P1;HPM_P2
2021/10/06 00:00:31;;;;;;;3.83;3.05;;;;;;;5.76;48.15;101842.44;4899766;29;20059;-73
2021/10/06 00:02:57;;;;;;;3.80;2.95;;;;;;;5.84;48.01;101844.00;4899886;29;20139;-73
2021/10/06 00:05:23;;;;;;;3.92;3.00;;;;;;;5.85;47.94;101829.81;4899452;29;20472;-73
2021/10/06 00:07:49;;;;;;;4.55;2.80;;;;;;;5.99;47.69;101832.25;4899614;29;20134;-75
2021/10/06 00:10:15;;;;;;;3.60;2.80;;;;;;;6.04;47.54;101846.28;4899651;29;20381;-75
2021/10/06 00:12:41;;;;;;;3.92;2.85;;;;;;;5.99;47.69;101842.00;4899683;29;20054;-74
2021/10/06 00:15:09;;;;;;;7.25;2.90;;;;;;;6.07;47.69;101843.56;4899489;29;20050;-73
2021/10/06 00:17:35;;;;;;;3.03;2.40;;;;;;;6.02;47.61;101845.44;4899049;29;20510;-74
2021/10/06 00:20:01;;;;;;;4.78;2.65;;;;;;;5.96;47.62;101837.59;4899259;29;20048;-73
2021/10/06 00:22:27;;;;;;;4.18;2.40;;;;;;;5.67;48.14;101831.97;4899418;29;20056;-73
2021/10/06 00:24:53;;;;;;;4.97;2.60;;;;;;;5.67;48.12;101845.25;4899064;29;20415;-74
2021/10/06 00:27:18;;;;;;;4.25;2.85;;;;;;;5.60;48.48;101845.41;4899308;29;20047;-73
2021/10/06 00:29:44;;;;;;;4.47;2.70;;;;;;;5.51;48.75;101845.56;4899241;29;20224;-75
2021/10/06 00:32:10;;;;;;;4.15;3.40;;;;;;;5.35;49.09;101830.84;4914937;29;20051;-74
2021/10/06 00:34:36;;;;;;;2.90;2.60;;;;;;;5.48;48.95;101847.38;4884235;29;20381;-74
2021/10/06 00:37:02;;;;;;;3.33;2.70;;;;;;;5.40;49.28;101844.00;4883889;29;20098;-74
2021/10/06 00:39:30;;;;;;;3.72;2.70;;;;;;;5.43;48.95;101844.81;4918825;29;20118;-75
2021/10/06 00:41:56;;;;;;;3.35;2.75;;;;;;;5.56;48.64;101846.31;4903561;29;20056;-74
2021/10/06 00:44:22;;;;;;;5.60;2.92;;;;;;;5.58;48.83;101859.56;4887179;29;20427;-74
2021/10/06 00:46:48;;;;;;;2.92;2.30;;;;;;;5.57;48.65;101848.09;4903059;29;20071;-75
2021/10/06 00:49:14;;;;;;;2.67;2.45;;;;;;;5.42;48.91;101852.81;4902910;29;20500;-75
2021/10/06 00:51:40;;;;;;;3.15;2.42;;;;;;;5.43;49.10;101849.25;4902796;29;20059;-75
2021/10/06 00:54:06;;;;;;;3.10;2.35;;;;;;;5.11;49.38;101827.75;4902669;29;20044;-74
2021/10/06 00:56:32;;;;;;;6.95;3.08;;;;;;;5.04;50.12;101839.34;4902551;29;20044;-75
2021/10/06 00:58:58;;;;;;;3.10;2.55;;;;;;;4.85;50.20;101841.44;4903094;29;20048;-74
2021/10/06 01:01:24;;;;;;;3.22;2.78;;;;;;;4.90;50.48;101859.03;4902714;29;20414;-74
2021/10/06 01:03:50;;;;;;;3.58;2.78;;;;;;;4.88;50.44;101861.69;4918167;29;20139;-74
2021/10/06 01:06:17;;;;;;;3.75;2.70;;;;;;;4.71;50.71;101847.84;4902490;29;20054;-74
2021/10/06 01:08:43;;;;;;;3.63;2.70;;;;;;;4.65;51.01;101853.25;4902036;29;20142;-75
2021/10/06 01:11:10;;;;;;;3.58;2.95;;;;;;;4.60;51.46;101856.84;4902504;29;20048;-74
2021/10/06 01:13:36;;;;;;;5.10;2.63;;;;;;;4.50;51.26;101854.34;4902111;29;20093;-75
2021/10/06 01:16:03;;;;;;;4.72;2.88;;;;;;;4.59;51.54;101871.00;4901905;29;20044;-76
2021/10/06 01:18:29;;;;;;;3.22;2.75;;;;;;;4.52;51.70;101853.44;4918242;29;20492;-75
2021/10/06 01:20:55;;;;;;;4.00;2.58;;;;;;;4.49;52.04;101857.91;4902354;29;20051;-75
2021/10/06 01:23:21;;;;;;;3.47;3.00;;;;;;;4.59;51.95;101863.03;4902190;29;20396;-74
2021/10/06 01:25:47;;;;;;;4.57;2.63;;;;;;;4.56;51.77;101843.66;4902385;29;20055;-73
2021/10/06 01:28:13;;;;;;;4.20;3.00;;;;;;;4.60;51.63;101842.72;4902185;29;20047;-74
2021/10/06 01:30:38;;;;;;;4.75;3.17;;;;;;;4.76;51.49;101851.28;4902110;29;20048;-74
2021/10/06 01:33:04;;;;;;;6.13;2.80;;;;;;;4.93;51.33;101854.56;4886672;29;20047;-75
2021/10/06 01:35:30;;;;;;;5.70;3.38;;;;;;;5.01;50.84;101836.75;4917476;29;20052;-74
2021/10/06 01:41:20;;;;;;;5.53;3.10;;;;;;;5.11;50.50;101856.91;4885711;29;20060;-74
2021/10/06 01:43:46;;;;;;;4.30;2.88;;;;;;;5.18;50.44;101838.22;4901734;29;20059;-74
2021/10/06 01:46:13;;;;;;;5.70;2.90;;;;;;;5.12;50.73;101863.06;4901673;29;20146;-74
2021/10/06 01:48:39;;;;;;;3.85;2.90;;;;;;;4.96;50.90;101859.78;4900673;29;20083;-74
2021/10/06 01:51:05;;;;;;;3.10;2.75;;;;;;;4.91;51.37;101859.00;4901852;29;20131;-74
2021/10/06 01:53:35;;;;;;;4.43;3.17;;;;;;;4.88;51.24;101857.25;4902011;29;20051;-74
2021/10/06 01:56:01;;;;;;;5.05;2.95;;;;;;;4.88;51.15;101851.09;4901748;29;20494;-75
2021/10/06 01:58:27;;;;;;;4.03;2.58;;;;;;;4.74;51.16;101843.38;4902405;29;20051;-74
2021/10/06 02:00:53;;;;;;;4.72;2.92;;;;;;;4.88;51.00;101861.69;4902294;29;20040;-75
2021/10/06 02:03:19;;;;;;;4.55;3.10;;;;;;;4.87;50.89;101846.69;4887493;29;20044;-73
2021/10/06 02:05:45;;;;;;;8.60;3.00;;;;;;;5.00;50.84;101866.81;4902812;29;20074;-74
2021/10/06 02:08:14;;;;;;;10.57;3.03;;;;;;;5.05;50.70;101864.94;4902643;29;20050;-74
2021/10/06 02:10:40;;;;;;;7.63;3.53;;;;;;;5.15;50.41;101865.66;4901864;29;20522;-73
2021/10/06 02:13:06;;;;;;;3.13;2.67;;;;;;;5.06;50.73;101861.38;4901660;29;20044;-74
2021/10/06 02:15:32;;;;;;;9.90;3.00;;;;;;;4.95;50.62;101851.88;4902086;29;20126;-74
2021/10/06 02:17:58;;;;;;;28.35;3.30;;;;;;;5.04;50.20;101863.22;4901137;29;20059;-74
2021/10/06 02:20:24;;;;;;;3.47;2.80;;;;;;;5.18;50.29;101859.44;4901072;29;20445;-74
2021/10/06 02:22:50;;;;;;;5.15;3.10;;;;;;;5.20;50.40;101862.94;4916975;29;20054;-74
2021/10/06 02:25:16;;;;;;;5.05;3.10;;;;;;;5.25;50.20;101866.38;4901195;29;20040;-74
2021/10/06 02:27:42;;;;;;;5.60;2.63;;;;;;;5.34;49.85;101866.19;4901195;29;20127;-74
2021/10/06 02:30:08;;;;;;;4.97;3.38;;;;;;;5.24;49.79;101848.72;4900693;29;20058;-72
2021/10/06 02:32:36;;;;;;;4.72;3.08;;;;;;;5.16;49.68;101858.59;4901037;29;20048;-73
2021/10/06 02:35:02;;;;;;;7.43;3.90;;;;;;;5.09;49.66;101865.78;4901117;29;20177;-75
2021/10/06 02:37:29;;;;;;;4.95;2.97;;;;;;;5.08;50.05;101859.59;4901441;29;20055;-74
2021/10/06 02:40:05;;;;;;;5.53;3.15;;;;;;;5.03;49.99;101852.59;4916506;29;20095;-75
2021/10/06 02:43:10;;;;;;;5.28;3.00;;;;;;;4.83;50.25;101831.75;4870166;29;20096;-75
2021/10/06 02:45:35;;;;;;;5.10;3.05;;;;;;;4.85;50.29;101846.72;4846798;29;20160;-74
2021/10/06 02:48:01;;;;;;;4.72;2.80;;;;;;;4.86;50.48;101844.97;4862159;29;20067;-75
2021/10/06 02:50:27;;;;;;;5.28;2.90;;;;;;;4.67;51.07;101851.47;4862411;29;20048;-75
2021/10/06 02:52:53;;;;;;;5.55;2.95;;;;;;;4.70;51.00;101861.97;4862093;29;20092;-75
2021/10/06 02:55:19;;;;;;;4.07;2.97;;;;;;;4.66;51.20;101855.84;4861920;29;20552;-75
2021/10/06 02:57:45;;;;;;;9.77;3.97;;;;;;;4.66;51.22;101860.28;4846467;29;20049;-75
2021/10/06 03:00:12;;;;;;;7.03;3.47;;;;;;;4.59;51.44;101854.22;4846105;29;20651;-76
2021/10/06 03:02:41;;;;;;;5.43;3.22;;;;;;;4.57;51.50;101862.16;4862029;29;20077;-74
2021/10/06 03:05:11;;;;;;;6.00;3.28;;;;;;;4.67;51.35;101867.34;4846848;29;20135;-74
2021/10/06 03:07:37;;;;;;;3.97;2.80;;;;;;;4.82;50.94;101867.09;4862328;29;20176;-74
2021/10/06 03:10:04;;;;;;;4.53;3.17;;;;;;;4.82;51.04;101867.09;4846793;29;20044;-73
2021/10/06 03:12:32;;;;;;;8.63;3.22;;;;;;;4.85;50.88;101867.03;4846590;29;20060;-75
2021/10/06 03:14:58;;;;;;;8.48;3.45;;;;;;;4.87;50.74;101870.56;4846844;29;20053;-74
2021/10/06 03:17:25;;;;;;;5.82;3.40;;;;;;;4.90;50.62;101869.63;4842885;29;20080;-74
2021/10/06 03:19:51;;;;;;;6.22;3.13;;;;;;;4.85;50.56;101869.69;4861110;29;20100;-75
2021/10/06 03:22:17;;;;;;;7.82;3.15;;;;;;;4.71;51.07;101871.69;4881272;29;20049;-75
2021/10/06 03:24:43;;;;;;;9.93;3.20;;;;;;;4.71;50.91;101858.47;4850656;29;20040;-74
2021/10/06 03:27:10;;;;;;;4.80;3.60;;;;;;;4.88;50.91;101872.28;4849317;29;20428;-75
2021/10/06 03:29:35;;;;;;;4.60;3.08;;;;;;;4.85;50.64;101856.44;4881177;29;20131;-74
2021/10/06 03:32:02;;;;;;;5.93;3.53;;;;;;;4.80;50.84;101863.59;4880788;29;20048;-74
2021/10/06 03:34:28;;;;;;;5.75;3.38;;;;;;;4.85;51.13;101864.38;4880775;29;20052;-74
2021/10/06 03:36:54;;;;;;;8.77;3.80;;;;;;;4.92;50.73;101873.13;4880890;29;20051;-76
2021/10/06 03:39:19;;;;;;;7.43;3.10;;;;;;;4.91;50.63;101872.25;4880916;29;20414;-75
2021/10/06 03:41:46;;;;;;;7.78;3.17;;;;;;;4.80;50.90;101874.19;4880914;29;20506;-75
2021/10/06 03:44:13;;;;;;;6.88;3.38;;;;;;;4.77;50.63;101855.69;4865189;29;20036;-74
2021/10/06 03:47:04;;;;;;;4.97;3.30;;;;;;;4.91;50.86;101879.31;4883903;29;20135;-75
2021/10/06 03:49:30;;;;;;;4.70;3.28;;;;;;;4.99;50.52;101870.34;4880600;29;20408;-75
2021/10/06 03:51:56;;;;;;;6.05;3.50;;;;;;;5.04;50.50;101881.75;4880572;29;20049;-75
2021/10/06 03:54:22;;;;;;;6.63;3.22;;;;;;;5.05;50.36;101879.97;4880387;29;20045;-74
2021/10/06 03:56:48;;;;;;;6.47;3.42;;;;;;;5.01;50.61;101879.16;4880754;29;20147;-74
2021/10/06 03:59:14;;;;;;;6.15;3.47;;;;;;;4.94;50.65;101882.81;4880911;29;20055;-75
2021/10/06 04:01:40;;;;;;;3.95;2.97;;;;;;;4.94;50.65;101898.72;4880203;29;20048;-75
2021/10/06 04:04:06;;;;;;;5.30;2.97;;;;;;;4.90;50.83;101889.06;4880228;29;20116;-75
2021/10/06 04:06:32;;;;;;;6.90;3.17;;;;;;;4.83;51.39;101882.09;4880274;29;20040;-74
2021/10/06 04:08:58;;;;;;;6.07;3.17;;;;;;;4.78;51.47;101889.25;4885529;29;20040;-76
2021/10/06 04:11:24;;;;;;;6.57;3.28;;;;;;;4.81;51.55;101867.97;4898809;29;20044;-76
2021/10/06 04:13:57;;;;;;;7.30;3.05;;;;;;;4.50;51.75;101846.41;4898776;29;20052;-76
2021/10/06 04:16:23;;;;;;;3.83;3.10;;;;;;;4.70;51.86;101883.16;4910681;29;20228;-76
2021/10/06 04:18:49;;;;;;;7.93;3.33;;;;;;;4.66;52.10;101873.53;4895605;29;20570;-76
2021/10/06 04:21:17;;;;;;;5.55;2.90;;;;;;;4.63;52.19;101887.72;4869444;29;20482;-76
2021/10/06 04:23:43;;;;;;;3.90;2.92;;;;;;;5.02;54.67;101886.19;4868615;29;20068;-78
2021/10/06 04:26:09;;;;;;;6.07;3.25;;;;;;;5.20;51.09;101874.41;4868034;29;20070;-76
2021/10/06 04:28:36;;;;;;;9.23;3.28;;;;;;;5.15;50.93;101892.16;4868256;29;20047;-76
2021/10/06 04:31:02;;;;;;;7.53;3.33;;;;;;;5.04;51.19;101895.03;4868347;29;20044;-74
2021/10/06 04:33:28;;;;;;;6.65;3.20;;;;;;;4.95;51.23;101900.44;4868095;29;20052;-76
2021/10/06 04:35:54;;;;;;;7.18;3.60;;;;;;;4.90;51.19;101886.41;4868811;29;20385;-75
2021/10/06 04:38:20;;;;;;;5.90;3.47;;;;;;;5.02;51.50;101896.81;4868246;29;20051;-77
2021/10/06 04:40:46;;;;;;;5.97;3.50;;;;;;;5.01;51.78;101900.38;4869163;29;20044;-75
2021/10/06 04:43:12;;;;;;;6.40;3.53;;;;;;;5.28;51.62;101908.75;4885807;29;20495;-76
2021/10/06 04:45:41;;;;;;;7.78;3.80;;;;;;;5.38;51.05;101902.41;4885504;29;20060;-75
2021/10/06 04:48:08;;;;;;;6.75;3.90;;;;;;;5.36;50.94;101891.81;4885012;29;20165;-76
2021/10/06 04:50:34;;;;;;;5.28;3.30;;;;;;;5.69;50.47;101899.19;4867892;29;20052;-75
2021/10/06 04:53:00;;;;;;;6.03;4.40;;;;;;;5.90;50.10;101897.88;4867828;29;20044;-76
2021/10/06 04:55:26;;;;;;;9.48;7.15;;;;;;;6.00;49.58;101897.69;4867202;29;20100;-77
2021/10/06 04:57:54;;;;;;;9.90;6.85;;;;;;;5.91;49.44;101897.88;4882926;29;20052;-76
2021/10/06 05:00:20;;;;;;;12.45;8.35;;;;;;;5.95;49.79;101891.63;4872978;29;20057;-75
2021/10/06 05:02:46;;;;;;;16.33;8.65;;;;;;;6.20;49.42;101888.44;4867813;29;20063;-75
2021/10/06 05:05:12;;;;;;;21.23;8.45;;;;;;;6.42;49.05;101892.38;4867792;29;20342;-76
2021/10/06 05:07:38;;;;;;;6.78;4.47;;;;;;;6.47;48.46;101879.88;4868377;29;20048;-76
2021/10/06 05:10:05;;;;;;;11.15;5.13;;;;;;;6.61;48.25;101881.34;4868134;29;20530;-77
2021/10/06 05:12:31;;;;;;;5.03;3.45;;;;;;;6.62;47.56;101888.41;4883873;29;20047;-77
2021/10/06 05:14:57;;;;;;;13.07;3.72;;;;;;;6.60;47.81;101879.59;4868317;29;20042;-75
2021/10/06 05:20:56;;;;;;;6.72;3.60;;;;;;;6.65;48.02;101885.66;4901446;29;20134;-76
2021/10/06 05:23:22;;;;;;;9.70;4.20;;;;;;;6.71;47.58;101885.53;4886696;29;20044;-75
2021/10/06 05:25:48;;;;;;;6.05;4.60;;;;;;;7.00;47.50;101891.03;4890011;29;20043;-75
2021/10/06 05:28:14;;;;;;;12.73;5.78;;;;;;;7.20;46.30;101887.88;4904604;29;20500;-75
2021/10/06 05:30:41;;;;;;;11.13;5.40;;;;;;;7.14;46.40;101879.16;4888900;29;20051;-78
2021/10/06 05:33:07;;;;;;;7.80;4.57;;;;;;;7.21;45.93;101888.75;4889500;29;20048;-78
2021/10/06 05:35:33;;;;;;;6.07;3.78;;;;;;;6.94;45.61;101885.84;4891022;29;20078;-76
2021/10/06 05:38:00;;;;;;;7.75;4.40;;;;;;;7.03;46.17;101875.00;4892429;29;20058;-77
2021/10/06 05:40:26;;;;;;;7.82;3.78;;;;;;;7.04;45.66;101884.72;4904324;29;20047;-76
2021/10/06 05:42:53;;;;;;;6.18;3.80;;;;;;;7.03;45.85;101882.09;4890690;29;20483;-75
2021/10/06 05:45:19;;;;;;;6.55;3.80;;;;;;;6.98;45.87;101879.53;4889671;29;20039;-75
2021/10/06 05:47:47;;;;;;;6.93;4.15;;;;;;;7.09;45.84;101887.28;4888980;29;20158;-75
2021/10/06 05:50:17;;;;;;;7.93;4.53;;;;;;;7.14;46.09;101887.16;4920967;29;20044;-77
2021/10/06 05:52:43;;;;;;;9.35;4.13;;;;;;;7.28;45.99;101875.25;4888961;29;20082;-76
2021/10/06 05:55:10;;;;;;;8.35;4.05;;;;;;;7.48;45.69;101877.38;4889628;29;20495;-80
2021/10/06 05:57:36;;;;;;;6.60;4.07;;;;;;;7.70;45.45;101884.78;4889612;29;20052;-77
2021/10/06 06:00:04;;;;;;;5.55;3.85;;;;;;;7.89;45.26;101872.69;4905181;29;20515;-77
2021/10/06 06:02:42;;;;;;;9.45;3.38;;;;;;;7.85;44.46;101881.69;4907187;29;20051;-76
2021/10/06 06:05:08;;;;;;;5.68;3.75;;;;;;;7.79;44.59;101882.75;4888409;29;20106;-76
2021/10/06 06:07:34;;;;;;;5.88;3.80;;;;;;;7.81;45.08;101885.34;4889439;29;20055;-78
2021/10/06 06:10:00;;;;;;;5.32;3.85;;;;;;;8.01;44.46;101875.03;4889029;29;20044;-77
2021/10/06 06:12:26;;;;;;;6.72;3.28;;;;;;;7.86;44.62;101878.13;4889121;29;20054;-76
2021/10/06 06:14:53;;;;;;;6.57;3.10;;;;;;;7.88;44.69;101880.75;4888894;29;20075;-77
2021/10/06 06:17:19;;;;;;;8.45;3.33;;;;;;;7.78;44.54;101872.13;4888689;29;20052;-78
2021/10/06 06:19:45;;;;;;;6.57;3.75;;;;;;;7.88;44.93;101889.59;4889064;29;20150;-77
2021/10/06 06:22:14;;;;;;;6.00;3.58;;;;;;;8.03;44.36;101875.84;4889218;29;20495;-77
2021/10/06 06:24:40;;;;;;;6.57;3.72;;;;;;;8.02;44.43;101866.09;4888997;29;20044;-77
2021/10/06 06:27:07;;;;;;;7.05;3.72;;;;;;;8.07;44.54;101873.09;4889142;29;20047;-77
2021/10/06 06:29:34;;;;;;;5.10;3.92;;;;;;;8.31;44.39;101869.69;4889211;29;20051;-79
2021/10/06 06:32:01;;;;;;;7.85;3.85;;;;;;;8.46;43.65;101876.38;4904831;29;20040;-78
2021/10/06 06:34:26;;;;;;;6.80;4.40;;;;;;;8.65;43.54;101866.00;4889151;29;20199;-78
2021/10/06 06:36:53;;;;;;;4.75;3.42;;;;;;;8.63;43.29;101862.53;4904112;29;20444;-78
2021/10/06 06:39:19;;;;;;;4.80;3.50;;;;;;;8.29;43.56;101874.19;4904372;29;20039;-78
2021/10/06 06:41:45;;;;;;;6.88;3.50;;;;;;;8.51;43.85;101867.31;4904262;29;20396;-76
2021/10/06 06:44:11;;;;;;;4.32;3.17;;;;;;;8.48;43.49;101871.88;4888601;29;20078;-77
2021/10/06 06:46:37;;;;;;;5.18;3.40;;;;;;;8.34;44.08;101880.25;4904538;29;20043;-76
2021/10/06 06:49:04;;;;;;;5.55;3.70;;;;;;;8.47;43.63;101857.69;4919572;29;20175;-77
2021/10/06 06:51:32;;;;;;;5.32;3.78;;;;;;;8.36;43.66;101875.75;4893992;29;20572;-78
2021/10/06 06:53:59;;;;;;;6.07;3.90;;;;;;;8.30;43.85;101869.75;4903303;29;20062;-79
2021/10/06 06:56:25;;;;;;;9.77;3.13;;;;;;;8.41;43.77;101876.53;4888470;29;20051;-78
2021/10/06 06:58:52;;;;;;;6.88;3.08;;;;;;;8.33;44.01;101870.53;4903683;29;20103;-78
2021/10/06 07:01:18;;;;;;;6.65;3.88;;;;;;;8.39;43.85;101862.38;4903975;29;20150;-78
2021/10/06 07:03:44;;;;;;;8.13;4.22;;;;;;;8.59;44.02;101863.56;4904746;29;20047;-78
2021/10/06 07:06:10;;;;;;;5.72;3.45;;;;;;;8.88;43.22;101863.50;4888876;29;20050;-78
2021/10/06 07:08:36;;;;;;;4.28;3.65;;;;;;;9.34;42.86;101850.38;4887751;29;20474;-78
2021/10/06 07:11:02;;;;;;;4.85;3.55;;;;;;;9.49;42.26;101858.72;4888188;29;20054;-77
2021/10/06 07:13:28;;;;;;;6.18;3.97;;;;;;;9.40;42.10;101853.72;4888256;29;20047;-77
2021/10/06 07:15:54;;;;;;;5.85;3.80;;;;;;;9.44;42.30;101858.03;4888132;29;20082;-77
2021/10/06 07:18:21;;;;;;;6.68;3.70;;;;;;;9.33;42.23;101836.19;4888169;29;20487;-76
2021/10/06 07:20:46;;;;;;;6.72;4.20;;;;;;;9.09;42.43;101842.34;4887970;29;20043;-77
2021/10/06 07:23:19;;;;;;;5.45;3.78;;;;;;;8.77;43.96;101854.09;4888109;29;20058;-77
2021/10/06 07:25:45;;;;;;;7.80;4.13;;;;;;;8.96;42.71;101840.09;4933322;29;20135;-77
2021/10/06 07:28:11;;;;;;;5.95;3.55;;;;;;;9.06;42.84;101843.31;4888253;29;20102;-76
2021/10/06 07:30:37;;;;;;;5.05;4.55;;;;;;;9.21;42.68;101847.25;4887844;29;20047;-77
2021/10/06 07:33:03;;;;;;;6.90;3.83;;;;;;;9.53;42.23;101842.59;4888083;29;20044;-78
2021/10/06 07:35:29;;;;;;;7.63;3.67;;;;;;;9.57;41.83;101833.56;4887656;29;20475;-78
2021/10/06 07:37:55;;;;;;;6.70;3.80;;;;;;;9.17;42.60;101850.97;4903345;29;20054;-77
2021/10/06 07:40:22;;;;;;;10.18;4.50;;;;;;;9.02;42.81;101847.00;4887474;29;20043;-77
2021/10/06 07:42:48;;;;;;;6.70;3.65;;;;;;;9.06;43.23;101842.44;4887083;29;20103;-77
2021/10/06 07:45:14;;;;;;;8.20;4.22;;;;;;;9.17;42.99;101827.81;4887311;29;20040;-77
2021/10/06 07:47:40;;;;;;;10.48;4.22;;;;;;;8.95;43.54;101838.38;4886612;29;20043;-77
2021/10/06 07:50:08;;;;;;;6.80;3.55;;;;;;;8.71;43.70;101826.69;4902904;29;20074;-77
2021/10/06 07:52:35;;;;;;;8.35;3.80;;;;;;;8.94;43.74;101838.41;4887632;29;20062;-76
2021/10/06 07:55:01;;;;;;;7.05;3.65;;;;;;;9.25;43.10;101835.53;4887379;29;20051;-77
2021/10/06 07:57:27;;;;;;;7.03;3.80;;;;;;;9.46;42.83;101829.47;4902963;29;20057;-77
2021/10/06 07:59:54;;;;;;;5.20;3.40;;;;;;;9.74;42.50;101831.13;4886939;29;20043;-77
2021/10/06 08:02:20;;;;;;;8.75;4.00;;;;;;;9.97;42.27;101817.78;4887879;29;20415;-77
2021/10/06 08:04:48;;;;;;;8.60;4.05;;;;;;;10.21;41.56;101812.44;4903104;29;20130;-77
2021/10/06 08:07:14;;;;;;;6.72;3.08;;;;;;;10.53;41.38;101815.66;4887823;29;20110;-77
2021/10/06 08:09:40;;;;;;;6.03;3.40;;;;;;;10.38;40.64;101812.69;4886912;29;20066;-77
2021/10/06 08:12:07;;;;;;;7.95;3.70;;;;;;;10.44;40.71;101807.06;4887833;29;20407;-77
2021/10/06 08:14:33;;;;;;;13.95;4.18;;;;;;;10.81;40.66;101816.28;4887675;29;20137;-78
2021/10/06 08:16:59;;;;;;;6.47;3.92;;;;;;;10.72;39.89;101803.28;4887249;29;20521;-77
2021/10/06 08:19:25;;;;;;;4.95;3.25;;;;;;;10.63;40.19;101809.00;4903059;29;20046;-78
2021/10/06 08:21:51;;;;;;;4.78;3.47;;;;;;;10.65;40.38;101815.16;4887186;29;20039;-77
2021/10/06 08:24:17;;;;;;;4.35;3.40;;;;;;;10.21;40.57;101783.03;4886839;29;20459;-77
2021/10/06 08:26:43;;;;;;;5.10;3.38;;;;;;;10.25;40.86;101797.13;4887044;29;20139;-78
2021/10/06 08:29:09;;;;;;;5.80;3.35;;;;;;;10.01;41.60;101790.97;4886755;29;20040;-77
2021/10/06 08:31:35;;;;;;;6.95;3.90;;;;;;;10.17;41.40;101794.78;4886771;29;20046;-77
2021/10/06 08:34:01;;;;;;;5.45;3.42;;;;;;;10.45;41.00;101795.47;4902337;29;20126;-78
2021/10/06 08:36:27;;;;;;;4.85;3.90;;;;;;;10.61;40.59;101797.50;4886592;29;20090;-77
2021/10/06 08:38:53;;;;;;;4.55;3.55;;;;;;;11.02;40.04;101793.09;4886773;29;20043;-78
2021/10/06 08:41:19;;;;;;;6.97;3.75;;;;;;;11.60;39.62;101795.00;4902029;29;20047;-78
2021/10/06 08:43:45;;;;;;;8.88;3.40;;;;;;;11.78;38.71;101793.31;4886984;29;20044;-77
2021/10/06 08:46:13;;;;;;;4.85;3.72;;;;;;;12.11;38.13;101794.44;4902917;29;20122;-77
2021/10/06 08:48:39;;;;;;;8.60;3.40;;;;;;;11.93;38.28;101794.44;4887536;29;20044;-77
2021/10/06 08:51:05;;;;;;;5.80;3.55;;;;;;;12.02;38.28;101796.69;4886768;29;20040;-77
2021/10/06 08:53:31;;;;;;;6.40;3.60;;;;;;;12.15;37.95;101787.13;4887522;29;20085;-77
2021/10/06 08:55:57;;;;;;;6.35;3.78;;;;;;;12.53;37.45;101787.94;4902667;29;20410;-77
2021/10/06 08:58:23;;;;;;;5.07;3.45;;;;;;;12.39;37.13;101785.94;4887990;29;20043;-77
2021/10/06 09:00:50;;;;;;;19.50;3.92;;;;;;;12.13;37.36;101770.22;4891404;29;20045;-78
2021/10/06 09:03:28;;;;;;;5.47;3.95;;;;;;;12.23;38.02;101787.63;4906172;29;20058;-77
2021/10/06 09:06:05;;;;;;;5.28;3.63;;;;;;;12.39;37.47;101769.84;4907512;29;20048;-78
2021/10/06 09:08:32;;;;;;;6.40;3.08;;;;;;;12.67;37.36;101787.25;4890861;29;20107;-78
2021/10/06 09:10:59;;;;;;;5.88;3.65;;;;;;;13.01;36.92;101783.75;4906213;29;20055;-77
2021/10/06 09:13:36;;;;;;;5.93;3.60;;;;;;;12.85;36.32;101778.28;4905996;29;20122;-79
2021/10/06 09:16:02;;;;;;;4.82;3.58;;;;;;;12.91;37.13;101773.56;4890728;29;20051;-78
2021/10/06 09:18:30;;;;;;;6.78;3.45;;;;;;;12.97;36.62;101776.78;4888603;29;20154;-78
2021/10/06 09:21:03;;;;;;;3.83;3.28;;;;;;;12.92;36.25;101773.47;4906217;29;20131;-79
2021/10/06 09:23:29;;;;;;;5.65;3.67;;;;;;;13.00;36.40;101770.38;4906104;29;20146;-78
2021/10/06 09:25:57;;;;;;;6.90;3.55;;;;;;;13.04;36.41;101763.91;4921538;29;20070;-78
2021/10/06 09:28:42;;;;;;;4.45;3.45;;;;;;;12.94;36.06;101758.16;4890054;29;20074;-77
2021/10/06 09:31:16;;;;;;;9.60;3.92;;;;;;;12.28;37.34;101766.81;4905819;29;20114;-78
2021/10/06 09:33:45;;;;;;;7.78;3.42;;;;;;;12.43;37.21;101775.06;4890738;29;20047;-78
2021/10/06 09:36:14;;;;;;;6.20;3.53;;;;;;;12.50;36.96;101761.28;4905439;29;20095;-78
2021/10/06 09:38:56;;;;;;;4.15;3.13;;;;;;;12.33;37.38;101758.53;4936924;29;20134;-78
2021/10/06 09:41:45;;;;;;;6.35;3.13;;;;;;;12.52;36.98;101769.22;4905370;29;20134;-78
2021/10/06 09:44:22;;;;;;;4.30;3.08;;;;;;;12.54;37.20;101776.25;4892662;29;20044;-77
2021/10/06 09:47:06;;;;;;;4.30;3.03;;;;;;;12.71;37.08;101764.69;4907450;29;20135;-76
2021/10/06 09:49:37;;;;;;;7.03;3.40;;;;;;;13.02;36.42;101773.88;4907386;29;20047;-80
2021/10/06 09:52:22;;;;;;;5.32;3.65;;;;;;;12.88;36.00;101770.06;4906394;29;20107;-80
2021/10/06 09:54:52;;;;;;;6.20;3.80;;;;;;;12.51;37.06;101773.72;4889692;29;20450;-78
2021/10/06 09:57:41;;;;;;;4.63;3.45;;;;;;;12.82;36.81;101761.44;4905819;29;20043;-78
2021/10/06 10:00:08;;;;;;;;;;;;;;;12.91;36.17;101765.50;4892933;29;20047;-77
2021/10/06 10:02:37;;;;;;;5.10;2.97;;;;;;;12.71;37.19;101759.31;4921394;29;19923;-75
2021/10/06 10:05:04;;;;;;;4.60;3.50;;;;;;;12.81;36.60;101765.09;4888880;29;20070;-76
2021/10/06 10:07:30;;;;;;;4.55;3.25;;;;;;;13.12;36.54;101767.06;4905003;29;20055;-79
2021/10/06 10:09:56;;;;;;;4.15;3.10;;;;;;;13.48;35.80;101764.28;4887810;29;20393;-78
2021/10/06 10:12:24;;;;;;;5.40;3.60;;;;;;;13.80;35.76;101765.25;4888716;29;20510;-77
2021/10/06 10:14:50;;;;;;;5.60;3.22;;;;;;;13.87;34.92;101751.44;4903892;29;20048;-77
2021/10/06 10:17:16;;;;;;;4.40;3.20;;;;;;;13.54;35.19;101739.78;4904692;29;20194;-77
2021/10/06 10:19:51;;;;;;;5.47;3.22;;;;;;;12.98;36.09;101740.09;4889248;29;20113;-76
2021/10/06 10:22:17;;;;;;;8.13;3.42;;;;;;;13.05;36.74;101755.78;4888863;29;20048;-77
2021/10/06 10:24:48;;;;;;;5.97;3.30;;;;;;;13.21;36.30;101747.78;4888830;29;20063;-76
2021/10/06 10:27:21;;;;;;;3.75;2.92;;;;;;;13.55;36.01;101754.94;4904494;29;20480;-77
2021/10/06 10:30:05;;;;;;;4.40;3.08;;;;;;;13.77;35.09;101768.09;4903728;29;20047;-77
2021/10/06 10:32:44;;;;;;;4.35;3.30;;;;;;;14.29;35.82;101748.16;4889239;29;20047;-77
2021/10/06 10:35:14;;;;;;;;;;;;;;;14.57;34.32;101753.72;4920253;29;20111;-79
2021/10/06 10:37:46;;;;;;;5.63;2.90;;;;;;;14.47;34.12;101713.94;4903823;29;19918;-78
2021/10/06 10:40:33;;;;;;;5.50;3.38;;;;;;;15.03;33.37;101750.13;4888367;29;20043;-77
2021/10/06 10:43:03;;;;;;;3.30;2.83;;;;;;;15.22;33.64;101744.47;4903589;29;20046;-78
2021/10/06 10:46:05;;;;;;;3.55;3.00;;;;;;;14.87;33.00;101749.31;4903662;29;20520;-78
2021/10/06 10:49:00;;;;;;;3.95;2.67;;;;;;;14.68;33.69;101750.41;4919347;29;20055;-78
2021/10/06 10:51:44;;;;;;;5.90;3.10;;;;;;;14.72;33.23;101741.19;4919413;29;20495;-78
2021/10/06 10:54:11;;;;;;;7.47;3.60;;;;;;;15.08;33.57;101742.63;4903695;29;20505;-78
2021/10/06 10:56:48;;;;;;;4.72;3.45;;;;;;;15.57;32.65;101727.94;4904144;29;20050;-79
2021/10/06 10:59:19;;;;;;;3.78;3.20;;;;;;;15.96;31.93;101727.28;4887551;29;20112;-79
2021/10/06 11:01:56;;;;;;;3.72;2.90;;;;;;;15.72;31.63;101727.88;4888266;29;20106;-79
2021/10/06 11:04:29;;;;;;;5.85;3.33;;;;;;;15.70;32.15;101737.03;4903315;29;20039;-79
2021/10/06 11:07:12;;;;;;;5.45;3.38;;;;;;;15.81;31.87;101744.44;4887525;29;20119;-79
2021/10/06 11:09:40;;;;;;;6.30;3.30;;;;;;;15.75;32.03;101742.97;4903189;29;20048;-81
2021/10/06 11:12:09;;;;;;;5.93;3.20;;;;;;;15.16;32.63;101713.41;4888017;29;20043;-79
2021/10/06 11:14:48;;;;;;;7.05;2.92;;;;;;;14.33;33.79;101742.53;4903813;29;20411;-79
2021/10/06 11:17:16;;;;;;;4.60;3.28;;;;;;;13.64;35.53;101745.50;4904117;29;20061;-78
2021/10/06 11:19:55;;;;;;;9.23;3.92;;;;;;;13.45;35.82;101745.66;4887873;29;20398;-78
2021/10/06 11:22:23;;;;;;;6.63;3.05;;;;;;;12.87;36.73;101738.81;4904670;29;20483;-77
2021/10/06 11:24:59;;;;;;;9.60;3.30;;;;;;;12.82;37.02;101751.59;4919246;29;20043;-80
2021/10/06 11:27:26;;;;;;;6.93;3.17;;;;;;;12.51;37.49;101754.09;4919307;29;20086;-80
2021/10/06 11:29:54;;;;;;;9.00;3.67;;;;;;;12.65;37.86;101738.16;4903433;29;20036;-79
2021/10/06 11:32:21;;;;;;;6.05;3.17;;;;;;;12.64;38.05;101749.84;4884411;29;20399;-78
2021/10/06 11:35:08;;;;;;;5.32;3.03;;;;;;;12.75;37.53;101755.56;4884881;29;20063;-78
2021/10/06 11:37:35;;;;;;;5.70;3.05;;;;;;;13.04;37.41;101755.84;4881164;29;20111;-78
2021/10/06 11:40:01;;;;;;;3.67;2.90;;;;;;;13.11;36.96;101757.28;4884367;29;20043;-78
2021/10/06 11:42:31;;;;;;;6.75;2.88;;;;;;;12.43;38.10;101764.34;4877973;29;20043;-79